Weather at Gila Port Airport [CLOSED]

Public forecast

Using degrees Fahrenheit for public forecast. Weather courtesy of forecast.io.

Closest aviation weather report (METAR) to Gila Port Airport

Closest report is Glendale Municipal Airport, 8.8 nm (16.2 km) NW.

2023/09/24 16:47 (retrieved 29 minutes ago)

KGEU 241647Z 00000KT 10SM SKC 29/07 A2995

Closest aviation forecast (TAF) to Gila Port Airport

Closest forecast is Phoenix Sky Harbor International Airport, 9.2 nm (17.1 km) E.

2023/09/24 15:48 Ammendment (retrieved 1 hour ago)

TAF AMD KPHX 241446Z 2415/2518 09004KT P6SM SKC FM242100 27007KT P6SM SKC FM250700 10005KT P6SM SKC